Time;durP1;ratioP1;P1;durP2;ratioP2;P2;SDS_P1;SDS_P2;PMS_P1;PMS_P2;Temp;Humidity;BMP_temperature;BMP_pressure;BME280_temperature;BME280_humidity;BME280_pressure;Samples;Min_cycle;Max_cycle;Signal;HPM_P1;HPM_P2
2023/04/09 00:00:04;;;;;;;3.97;3.67;;;21.40;73.40;;;;;;5012282;28;20204;-58
2023/04/09 00:02:30;;;;;;;3.67;3.35;;;21.40;73.20;;;;;;5014947;28;20200;-57
2023/04/09 00:04:57;;;;;;;4.53;4.15;;;21.50;74.00;;;;;;5009021;28;20274;-56
2023/04/09 00:07:24;;;;;;;3.92;3.38;;;21.40;73.10;;;;;;5014128;28;20225;-57
2023/04/09 00:09:52;;;;;;;4.45;4.05;;;21.40;72.90;;;;;;5012606;28;20604;-57
2023/04/09 00:12:18;;;;;;;3.83;3.55;;;21.40;72.90;;;;;;5011060;28;20683;-57
2023/04/09 00:14:45;;;;;;;3.88;3.58;;;21.40;72.80;;;;;;5016777;28;20224;-56
2023/04/09 00:17:12;;;;;;;4.20;3.60;;;21.40;72.60;;;;;;5011848;28;20565;-56
2023/04/09 00:19:39;;;;;;;3.10;2.78;;;21.40;72.50;;;;;;5013471;28;20204;-58
2023/04/09 00:22:05;;;;;;;3.22;2.92;;;21.40;72.50;;;;;;5013704;28;20796;-57
2023/04/09 00:24:32;;;;;;;3.90;3.05;;;21.40;72.50;;;;;;5009184;28;20195;-56
2023/04/09 00:27:00;;;;;;;3.70;3.40;;;21.30;72.30;;;;;;5010307;28;20672;-56
2023/04/09 00:29:27;;;;;;;5.20;2.70;;;21.30;72.20;;;;;;5010983;28;20459;-55
2023/04/09 00:31:56;;;;;;;3.35;3.08;;;21.40;72.30;;;;;;5017292;28;20243;-57
2023/04/09 00:34:23;;;;;;;4.70;3.10;;;21.30;72.00;;;;;;5016767;28;20661;-57
2023/04/09 00:36:50;;;;;;;3.00;2.80;;;21.30;72.00;;;;;;5019166;28;20196;-59
2023/04/09 00:39:16;;;;;;;3.80;3.50;;;21.30;72.00;;;;;;5014867;28;20193;-55
2023/04/09 00:41:43;;;;;;;3.17;2.67;;;21.30;71.90;;;;;;5014383;28;20205;-56
2023/04/09 00:44:11;;;;;;;3.45;3.17;;;21.30;71.90;;;;;;5018658;28;20208;-56
2023/04/09 00:46:38;;;;;;;3.22;2.92;;;21.30;71.80;;;;;;5010784;28;20247;-57
2023/04/09 00:49:05;;;;;;;2.60;2.40;;;21.30;71.80;;;;;;5008319;28;20266;-58
2023/04/09 00:51:33;;;;;;;2.58;2.38;;;21.30;71.80;;;;;;5008666;28;20205;-58
2023/04/09 00:53:59;;;;;;;3.97;3.50;;;21.30;71.80;;;;;;5012378;28;20201;-57
2023/04/09 00:56:27;;;;;;;7.28;2.97;;;21.30;71.60;;;;;;5017565;28;20632;-59
2023/04/09 00:58:54;;;;;;;3.22;2.92;;;21.30;71.90;;;;;;5015608;28;20254;-56
2023/04/09 01:01:22;;;;;;;3.60;3.30;;;21.30;71.50;;;;;;5015977;28;20197;-56
2023/04/09 01:03:49;;;;;;;3.10;2.90;;;21.20;71.30;;;;;;5013532;28;20196;-56
2023/04/09 01:06:25;;;;;;;3.30;3.05;;;21.30;71.40;;;;;;5013338;28;20192;-56
2023/04/09 01:08:59;;;;;;;3.55;3.25;;;21.30;71.40;;;;;;5010318;28;20220;-57
2023/04/09 01:11:36;;;;;;;3.20;2.90;;;21.20;71.10;;;;;;5011830;28;20208;-59
2023/04/09 01:14:11;;;;;;;2.90;2.60;;;21.20;71.00;;;;;;5008294;28;20192;-55
2023/04/09 01:16:44;;;;;;;2.90;2.55;;;21.20;71.00;;;;;;5012797;28;20663;-55
2023/04/09 01:19:25;;;;;;;3.50;3.20;;;21.20;71.00;;;;;;5009644;28;20197;-56
2023/04/09 01:21:53;;;;;;;3.80;3.00;;;21.20;71.00;;;;;;5018296;28;20251;-58
2023/04/09 01:24:28;;;;;;;3.58;3.03;;;21.20;71.00;;;;;;5011127;28;20655;-53
2023/04/09 01:27:05;;;;;;;3.30;3.00;;;21.20;70.90;;;;;;5011327;28;20249;-56
2023/04/09 01:29:35;;;;;;;3.53;3.22;;;21.10;70.80;;;;;;5007274;28;20259;-58
2023/04/09 01:32:04;;;;;;;3.60;3.30;;;21.10;71.00;;;;;;5011210;28;20201;-59
2023/04/09 01:34:31;;;;;;;3.15;2.85;;;21.10;70.80;;;;;;5012940;28;20196;-58
2023/04/09 01:36:59;;;;;;;3.22;2.92;;;21.20;70.80;;;;;;5010382;28;20274;-57
2023/04/09 01:39:26;;;;;;;3.28;2.97;;;21.10;70.70;;;;;;5008367;28;20204;-57
2023/04/09 01:41:55;;;;;;;2.47;2.28;;;21.10;70.60;;;;;;5007005;28;20788;-56
2023/04/09 01:44:23;;;;;;;3.15;2.85;;;21.20;71.50;;;;;;5012719;28;20251;-58
2023/04/09 01:46:52;;;;;;;3.42;3.13;;;21.20;70.60;;;;;;5012789;28;20192;-58
2023/04/09 01:49:19;;;;;;;4.03;2.83;;;21.10;70.60;;;;;;5011995;28;20236;-57
2023/04/09 01:51:47;;;;;;;3.10;2.83;;;21.10;70.40;;;;;;5010960;28;20603;-56
2023/04/09 01:54:14;;;;;;;3.55;3.25;;;21.10;70.40;;;;;;5016287;28;20201;-57
2023/04/09 01:56:41;;;;;;;2.97;2.78;;;21.10;70.40;;;;;;5015654;28;20229;-54
2023/04/09 01:59:08;;;;;;;3.03;2.70;;;21.10;70.30;;;;;;5009329;28;20201;-56
2023/04/09 02:01:40;;;;;;;3.40;3.10;;;21.10;70.30;;;;;;5013488;28;20217;-55
2023/04/09 02:04:14;;;;;;;2.92;2.72;;;21.10;70.30;;;;;;5012243;28;20205;-59
2023/04/09 02:06:47;;;;;;;4.75;2.78;;;21.00;70.10;;;;;;5012142;28;20465;-57
2023/04/09 02:09:17;;;;;;;3.65;3.17;;;21.10;70.30;;;;;;5019207;28;20223;-56
2023/04/09 02:11:46;;;;;;;2.80;2.17;;;21.00;70.10;;;;;;5012341;28;20192;-56
2023/04/09 02:14:13;;;;;;;2.50;2.30;;;21.00;70.20;;;;;;5011442;28;20526;-57
2023/04/09 02:16:41;;;;;;;2.90;2.70;;;21.00;70.20;;;;;;5008258;28;20221;-58
2023/04/09 02:19:09;;;;;;;3.22;3.00;;;21.00;70.10;;;;;;5017258;28;20280;-59
2023/04/09 02:21:35;;;;;;;2.88;2.58;;;21.00;70.10;;;;;;5011872;28;20217;-56
2023/04/09 02:24:02;;;;;;;2.80;2.45;;;21.00;70.00;;;;;;5017450;28;20205;-56
2023/04/09 02:26:29;;;;;;;2.70;2.50;;;21.00;69.90;;;;;;5019520;28;20201;-58
2023/04/09 02:28:55;;;;;;;2.40;2.20;;;21.00;70.00;;;;;;5014467;28;20192;-56
2023/04/09 02:31:22;;;;;;;3.20;3.00;;;21.10;70.10;;;;;;5015653;28;20683;-56
2023/04/09 02:33:49;;;;;;;2.60;2.40;;;21.00;69.90;;;;;;5019968;28;20287;-57
2023/04/09 02:36:17;;;;;;;2.50;2.30;;;21.00;69.80;;;;;;5016538;28;20279;-54
2023/04/09 02:38:44;;;;;;;3.00;2.80;;;21.00;69.80;;;;;;5014235;28;20549;-57
2023/04/09 02:41:11;;;;;;;3.22;2.92;;;21.00;69.70;;;;;;5014442;28;20197;-60
2023/04/09 02:43:37;;;;;;;3.15;2.90;;;21.00;69.70;;;;;;5018422;28;20602;-58
2023/04/09 02:46:04;;;;;;;2.30;2.10;;;21.00;69.70;;;;;;5012491;28;20600;-57
2023/04/09 02:48:31;;;;;;;3.17;2.88;;;21.00;69.60;;;;;;5019796;28;20242;-57
2023/04/09 02:50:58;;;;;;;3.25;2.90;;;21.00;69.60;;;;;;5012136;28;20200;-57
2023/04/09 02:53:26;;;;;;;2.70;2.50;;;21.00;69.60;;;;;;5015886;28;20207;-57
2023/04/09 02:55:52;;;;;;;2.55;2.35;;;21.00;69.60;;;;;;5015405;28;20290;-55
2023/04/09 02:58:19;;;;;;;2.67;2.47;;;20.90;69.50;;;;;;5011628;28;20201;-58
2023/04/09 03:00:46;;;;;;;2.80;2.60;;;21.00;69.60;;;;;;5013428;28;20844;-56
2023/04/09 03:03:12;;;;;;;2.70;2.50;;;21.00;69.70;;;;;;5019893;28;20197;-57
2023/04/09 03:05:39;;;;;;;2.80;2.58;;;21.00;69.60;;;;;;5017843;28;20201;-57
2023/04/09 03:08:06;;;;;;;2.95;2.70;;;21.00;70.40;;;;;;5011087;28;20258;-56
2023/04/09 03:10:34;;;;;;;3.08;2.88;;;21.00;69.50;;;;;;5016988;28;20196;-56
2023/04/09 03:13:01;;;;;;;3.03;2.83;;;21.00;70.30;;;;;;5012530;28;20292;-56
2023/04/09 03:15:27;;;;;;;2.90;2.60;;;21.00;69.40;;;;;;5015162;28;20221;-58
2023/04/09 03:17:54;;;;;;;4.43;2.40;;;21.00;69.40;;;;;;5018841;28;20502;-57
2023/04/09 03:20:21;;;;;;;3.95;3.20;;;20.90;69.30;;;;;;5020656;28;20688;-56
2023/04/09 03:22:47;;;;;;;3.00;2.80;;;20.90;69.30;;;;;;5020494;28;20215;-56
2023/04/09 03:25:14;;;;;;;2.85;2.60;;;21.00;69.30;;;;;;5016360;28;20208;-56
2023/04/09 03:27:42;;;;;;;3.10;2.90;;;20.90;69.20;;;;;;5018168;28;20620;-59
2023/04/09 03:30:10;;;;;;;2.92;2.72;;;20.90;69.20;;;;;;5011984;28;20246;-58
2023/04/09 03:32:36;;;;;;;3.28;2.97;;;20.90;69.10;;;;;;5020444;28;20259;-57
2023/04/09 03:35:04;;;;;;;2.30;2.10;;;20.90;69.10;;;;;;5011330;28;20251;-57
2023/04/09 03:37:30;;;;;;;2.53;2.35;;;20.90;69.20;;;;;;5007793;28;20197;-57
2023/04/09 03:39:57;;;;;;;3.22;2.80;;;20.90;69.20;;;;;;5013849;28;20605;-57
2023/04/09 03:42:24;;;;;;;3.05;2.75;;;20.90;69.20;;;;;;5014602;28;20277;-58
2023/04/09 03:44:53;;;;;;;2.42;2.22;;;20.90;69.10;;;;;;5020408;28;20238;-55
2023/04/09 03:47:20;;;;;;;3.15;2.95;;;20.90;69.10;;;;;;5014125;28;20247;-58
2023/04/09 03:49:46;;;;;;;3.20;2.95;;;20.90;69.00;;;;;;5018922;28;20192;-57
2023/04/09 03:52:13;;;;;;;2.00;1.90;;;20.90;69.10;;;;;;5013826;28;20585;-55
2023/04/09 03:54:42;;;;;;;3.10;2.90;;;20.90;69.00;;;;;;5016859;28;20193;-57
2023/04/09 03:57:08;;;;;;;2.35;2.15;;;20.90;69.80;;;;;;5016252;28;20224;-55
2023/04/09 03:59:35;;;;;;;2.58;2.38;;;20.90;69.00;;;;;;5011840;28;20188;-56
2023/04/09 04:02:03;;;;;;;5.05;2.38;;;20.90;69.00;;;;;;5010028;28;20247;-56
2023/04/09 04:04:30;;;;;;;2.50;2.30;;;20.90;69.00;;;;;;5019354;28;20201;-55
2023/04/09 04:06:56;;;;;;;2.65;2.45;;;20.90;68.90;;;;;;5012454;28;21502;-56
2023/04/09 04:09:23;;;;;;;2.65;2.45;;;20.90;68.90;;;;;;5018607;28;20196;-58
2023/04/09 04:11:50;;;;;;;2.85;2.65;;;20.90;68.80;;;;;;5011536;28;20201;-56
2023/04/09 04:14:16;;;;;;;2.80;2.60;;;20.90;68.80;;;;;;5014799;28;20222;-58
2023/04/09 04:16:43;;;;;;;2.85;2.65;;;20.90;68.80;;;;;;5014467;28;20267;-56
2023/04/09 04:19:11;;;;;;;2.80;2.60;;;20.90;68.80;;;;;;5018433;28;20200;-57
2023/04/09 04:21:38;;;;;;;3.17;2.88;;;20.80;68.70;;;;;;5017173;28;20297;-59
2023/04/09 04:24:05;;;;;;;2.95;2.75;;;20.90;68.80;;;;;;5009614;28;20256;-58
2023/04/09 04:26:32;;;;;;;3.05;2.60;;;20.80;68.70;;;;;;5020063;28;20292;-57
2023/04/09 04:28:58;;;;;;;2.53;2.05;;;20.80;68.60;;;;;;5013973;28;20208;-58
2023/04/09 04:31:25;;;;;;;3.05;2.70;;;20.80;68.70;;;;;;5009067;28;20707;-57
2023/04/09 04:33:52;;;;;;;3.72;2.90;;;20.80;68.70;;;;;;5012504;28;20671;-56
2023/04/09 04:36:20;;;;;;;2.60;2.40;;;20.80;68.70;;;;;;5015544;28;20220;-56
2023/04/09 04:38:46;;;;;;;2.20;2.00;;;20.80;68.70;;;;;;5012871;28;20328;-57
2023/04/09 04:41:13;;;;;;;2.25;2.05;;;20.80;68.60;;;;;;5010325;28;20657;-59
2023/04/09 04:43:41;;;;;;;3.55;3.25;;;20.80;68.50;;;;;;5016977;28;20199;-57
2023/04/09 04:46:07;;;;;;;2.63;2.42;;;20.80;68.50;;;;;;5008716;28;20211;-55
2023/04/09 04:48:34;;;;;;;2.45;2.25;;;20.80;68.50;;;;;;5015819;28;20202;-56
2023/04/09 04:51:02;;;;;;;2.88;2.58;;;20.80;68.50;;;;;;5019899;28;20203;-56
2023/04/09 04:53:30;;;;;;;2.60;2.40;;;20.80;68.40;;;;;;5022478;28;20243;-56
2023/04/09 04:55:57;;;;;;;3.10;2.90;;;20.80;68.40;;;;;;5019299;28;20232;-56
2023/04/09 04:58:24;;;;;;;2.33;2.13;;;20.80;68.50;;;;;;5023631;28;20230;-56
2023/04/09 05:00:51;;;;;;;2.58;2.38;;;20.80;68.40;;;;;;5017315;28;20196;-56
2023/04/09 05:03:18;;;;;;;2.72;2.53;;;20.80;68.40;;;;;;5011820;28;20650;-56
2023/04/09 05:05:45;;;;;;;2.92;2.72;;;20.80;68.40;;;;;;5016049;28;20254;-58
2023/04/09 05:08:12;;;;;;;2.30;2.15;;;20.80;68.40;;;;;;5010201;28;20216;-57
2023/04/09 05:10:42;;;;;;;2.60;2.40;;;20.80;68.40;;;;;;5021241;28;20207;-56
2023/04/09 05:13:09;;;;;;;2.65;2.45;;;20.80;68.40;;;;;;5012951;28;20569;-59
2023/04/09 05:15:38;;;;;;;2.50;2.30;;;20.80;68.40;;;;;;5011481;28;20192;-56
2023/04/09 05:18:05;;;;;;;2.50;2.30;;;20.80;68.30;;;;;;5016193;28;20620;-56
2023/04/09 05:20:32;;;;;;;2.85;2.65;;;20.80;68.40;;;;;;5014148;28;20211;-56
2023/04/09 05:22:58;;;;;;;3.08;2.83;;;20.80;68.40;;;;;;5011165;28;20254;-56
2023/04/09 05:25:25;;;;;;;2.35;2.15;;;20.80;68.40;;;;;;5019213;28;20596;-59
2023/04/09 05:27:53;;;;;;;2.38;2.17;;;20.80;68.30;;;;;;5015186;28;20722;-58
2023/04/09 05:30:20;;;;;;;3.20;2.90;;;20.80;68.20;;;;;;5012175;28;20626;-58
2023/04/09 05:32:47;;;;;;;2.45;2.25;;;20.80;68.20;;;;;;5012907;28;20687;-59
2023/04/09 05:35:13;;;;;;;3.00;2.75;;;20.90;68.30;;;;;;5015365;28;20219;-57
2023/04/09 05:37:40;;;;;;;2.50;2.30;;;20.90;68.20;;;;;;5014467;28;20316;-58
2023/04/09 05:40:08;;;;;;;2.38;2.17;;;20.90;68.20;;;;;;5014152;28;21262;-58
2023/04/09 05:42:35;;;;;;;2.47;2.28;;;20.90;68.20;;;;;;5019464;28;20264;-58
2023/04/09 05:45:03;;;;;;;2.65;2.45;;;20.90;68.20;;;;;;5018501;28;20202;-56
2023/04/09 05:47:30;;;;;;;2.85;2.40;;;20.90;68.20;;;;;;5017371;28;20246;-59
2023/04/09 05:49:56;;;;;;;2.05;1.95;;;20.90;68.20;;;;;;5018220;28;20196;-59
2023/04/09 05:52:23;;;;;;;2.45;2.25;;;20.90;68.20;;;;;;5012571;28;20189;-56
2023/04/09 05:54:50;;;;;;;2.47;2.28;;;20.90;68.90;;;;;;5012934;28;20201;-57
2023/04/09 05:57:17;;;;;;;2.65;2.45;;;20.90;68.20;;;;;;5015823;28;20680;-55
2023/04/09 05:59:43;;;;;;;3.10;2.80;;;20.90;68.20;;;;;;5010371;28;20205;-57
2023/04/09 06:02:11;;;;;;;2.90;2.70;;;20.90;68.10;;;;;;5014034;28;20204;-57
2023/04/09 06:04:38;;;;;;;3.22;3.03;;;20.90;68.10;;;;;;5019924;28;20215;-56
2023/04/09 06:07:05;;;;;;;2.60;2.40;;;20.90;68.00;;;;;;5026132;28;20677;-57
2023/04/09 06:09:31;;;;;;;3.15;2.80;;;20.90;67.90;;;;;;5018718;28;20193;-57
2023/04/09 06:11:58;;;;;;;2.97;2.78;;;20.90;67.80;;;;;;5018292;28;20573;-57
2023/04/09 06:14:25;;;;;;;2.50;2.30;;;20.90;67.80;;;;;;5014297;28;20263;-56
2023/04/09 06:16:51;;;;;;;2.70;2.50;;;20.90;67.80;;;;;;5020687;28;20223;-58
2023/04/09 06:19:20;;;;;;;2.88;2.65;;;21.00;67.80;;;;;;5019812;28;20204;-59
2023/04/09 06:21:46;;;;;;;2.65;2.45;;;21.00;67.70;;;;;;5015996;28;20319;-59
2023/04/09 06:24:13;;;;;;;2.95;2.65;;;21.00;67.70;;;;;;5018739;28;20676;-57
2023/04/09 06:26:40;;;;;;;2.80;2.50;;;21.00;67.70;;;;;;5018519;28;20209;-56
2023/04/09 06:29:07;;;;;;;2.85;2.65;;;21.00;67.70;;;;;;5016672;28;20212;-57
2023/04/09 06:31:33;;;;;;;2.78;2.58;;;21.00;67.60;;;;;;5015572;28;20271;-59
2023/04/09 06:34:00;;;;;;;2.30;2.10;;;21.00;67.60;;;;;;5015994;28;20200;-56
2023/04/09 06:36:29;;;;;;;3.30;3.00;;;21.00;67.60;;;;;;5018486;28;20695;-58
2023/04/09 06:38:56;;;;;;;2.42;2.22;;;21.10;67.60;;;;;;5015101;28;20254;-57
2023/04/09 06:41:23;;;;;;;2.20;2.00;;;21.10;67.60;;;;;;5017167;28;20303;-56
2023/04/09 06:43:50;;;;;;;2.60;2.40;;;21.10;67.70;;;;;;5014594;28;20207;-57
2023/04/09 06:46:18;;;;;;;2.42;2.22;;;21.10;67.60;;;;;;5017337;28;20204;-57
2023/04/09 06:48:45;;;;;;;3.13;2.90;;;21.10;67.60;;;;;;5019311;28;20295;-57
2023/04/09 06:51:13;;;;;;;3.10;2.70;;;21.10;67.60;;;;;;5020981;28;20204;-58
2023/04/09 06:53:42;;;;;;;3.25;2.95;;;21.10;67.50;;;;;;5024955;28;20196;-55
2023/04/09 06:56:08;;;;;;;2.60;2.40;;;21.10;67.80;;;;;;5013499;28;20665;-56
2023/04/09 06:58:35;;;;;;;2.88;2.55;;;21.20;67.80;;;;;;5012263;28;20208;-54
2023/04/09 07:01:02;;;;;;;2.55;2.17;;;21.20;67.80;;;;;;5016216;28;20202;-57
2023/04/09 07:03:29;;;;;;;2.40;2.20;;;21.20;67.80;;;;;;5021347;28;20275;-56
2023/04/09 07:05:56;;;;;;;2.60;2.40;;;21.20;67.80;;;;;;5022631;28;20292;-57
2023/04/09 07:08:23;;;;;;;4.85;2.53;;;21.30;67.90;;;;;;5020675;28;20462;-54
2023/04/09 07:10:51;;;;;;;2.13;1.92;;;21.30;68.00;;;;;;5013680;28;20242;-55
2023/04/09 07:13:18;;;;;;;2.47;2.28;;;21.30;68.00;;;;;;5016042;28;20205;-55
2023/04/09 07:15:44;;;;;;;2.93;2.73;;;21.30;68.00;;;;;;5020442;28;20252;-56
2023/04/09 07:18:11;;;;;;;2.60;2.40;;;21.30;68.00;;;;;;5020529;28;20510;-55
2023/04/09 07:20:38;;;;;;;3.03;2.83;;;21.30;68.10;;;;;;5016034;28;20460;-56
2023/04/09 07:23:07;;;;;;;2.60;2.40;;;21.30;68.10;;;;;;4998861;28;20775;-56
2023/04/09 07:25:33;;;;;;;2.40;2.27;;;21.40;68.90;;;;;;5015962;28;20506;-59
2023/04/09 07:28:01;;;;;;;3.25;2.40;;;21.40;68.90;;;;;;5018925;28;21002;-54
2023/04/09 07:30:28;;;;;;;2.90;2.70;;;21.40;68.70;;;;;;5015711;28;20270;-56
2023/04/09 07:32:55;;;;;;;4.40;2.58;;;21.40;68.60;;;;;;5013619;28;20238;-53
2023/04/09 07:35:22;;;;;;;2.88;2.45;;;21.40;68.40;;;;;;5011321;28;20208;-56
2023/04/09 07:37:48;;;;;;;4.03;3.07;;;21.40;68.20;;;;;;5011018;28;20228;-55
2023/04/09 07:40:15;;;;;;;3.10;2.70;;;21.50;68.20;;;;;;5012261;28;20467;-54
2023/04/09 07:42:42;;;;;;;3.00;2.70;;;21.50;68.20;;;;;;5014785;28;20209;-56
2023/04/09 07:45:10;;;;;;;3.28;2.83;;;21.50;68.10;;;;;;5012859;28;20201;-53
2023/04/09 07:47:39;;;;;;;3.47;3.17;;;21.50;67.90;;;;;;5013637;28;20200;-56
2023/04/09 07:50:07;;;;;;;3.50;3.20;;;21.50;67.80;;;;;;5022376;28;20459;-56
2023/04/09 07:52:34;;;;;;;3.77;2.80;;;21.50;67.70;;;;;;5022264;28;20510;-56
2023/04/09 07:55:01;;;;;;;3.17;2.95;;;21.50;67.70;;;;;;5017678;28;20864;-56
2023/04/09 07:57:27;;;;;;;2.60;2.40;;;21.50;67.70;;;;;;5019171;28;20225;-55
2023/04/09 07:59:54;;;;;;;6.57;3.37;;;21.60;67.70;;;;;;5019158;28;20998;-50
2023/04/09 08:02:22;;;;;;;8.82;4.20;;;21.60;68.00;;;;;;5017682;28;20902;-53
2023/04/09 08:04:49;;;;;;;3.67;3.27;;;21.60;68.00;;;;;;5021349;28;20283;-53
2023/04/09 08:07:16;;;;;;;4.17;3.70;;;21.60;68.00;;;;;;5011455;28;20815;-55
2023/04/09 08:09:42;;;;;;;3.25;2.95;;;21.60;68.20;;;;;;5021958;28;20981;-57
2023/04/09 08:12:09;;;;;;;3.67;3.37;;;21.60;68.40;;;;;;5021912;28;20196;-56
2023/04/09 08:14:36;;;;;;;3.37;3.10;;;21.60;68.40;;;;;;5018048;28;20475;-58
2023/04/09 08:17:03;;;;;;;3.40;3.10;;;21.60;68.60;;;;;;5021845;28;20480;-59
2023/04/09 08:19:31;;;;;;;4.17;3.30;;;21.60;68.60;;;;;;5027329;28;20485;-60
2023/04/09 08:21:58;;;;;;;3.63;3.33;;;21.60;68.70;;;;;;5024052;28;21077;-51
2023/04/09 08:24:25;;;;;;;3.27;3.03;;;21.60;68.80;;;;;;5013970;28;20259;-58
2023/04/09 08:26:52;;;;;;;3.92;3.60;;;21.60;68.80;;;;;;5011593;28;21018;-56
2023/04/09 08:29:18;;;;;;;3.30;3.00;;;21.70;69.00;;;;;;5018855;28;20193;-59
2023/04/09 08:31:45;;;;;;;3.80;3.50;;;21.70;69.00;;;;;;5015326;28;20455;-56
2023/04/09 08:34:14;;;;;;;3.43;3.13;;;21.70;69.20;;;;;;5010272;28;20499;-58
2023/04/09 08:36:46;;;;;;;3.30;3.00;;;21.70;69.10;;;;;;5011755;28;20466;-55
2023/04/09 08:39:12;;;;;;;3.70;3.10;;;21.80;69.60;;;;;;5017784;28;20456;-54
2023/04/09 08:41:42;;;;;;;3.63;3.33;;;21.80;69.20;;;;;;5017359;28;20451;-60
2023/04/09 08:44:09;;;;;;;3.53;3.30;;;21.80;69.20;;;;;;5006865;28;20646;-60
2023/04/09 08:46:36;;;;;;;3.90;3.33;;;21.80;69.20;;;;;;5009632;28;20446;-59
2023/04/09 08:49:03;;;;;;;4.53;4.13;;;21.80;69.30;;;;;;5014629;28;20456;-61
2023/04/09 08:51:30;;;;;;;6.10;5.60;;;21.80;68.90;;;;;;5008895;28;20462;-61
2023/04/09 08:53:59;;;;;;;8.10;4.70;;;21.70;68.20;;;;;;5013165;28;20467;-61
2023/04/09 08:56:26;;;;;;;4.80;4.37;;;21.70;68.30;;;;;;5012134;28;20950;-60
2023/04/09 08:58:54;;;;;;;4.37;3.97;;;21.70;68.40;;;;;;5006593;28;21029;-60
2023/04/09 09:01:22;;;;;;;4.20;3.90;;;21.80;68.50;;;;;;5012883;28;20827;-59
2023/04/09 09:03:55;;;;;;;4.57;4.17;;;21.80;68.40;;;;;;5012684;28;20478;-61
2023/04/09 09:06:22;;;;;;;5.03;4.63;;;21.80;68.40;;;;;;5007179;28;20547;-61
2023/04/09 09:09:00;;;;;;;5.90;4.07;;;21.80;68.30;;;;;;5010641;28;20977;-61
2023/04/09 09:11:29;;;;;;;4.07;3.77;;;21.90;68.40;;;;;;5016213;28;20465;-58
2023/04/09 09:13:58;;;;;;;4.27;3.87;;;21.90;68.30;;;;;;5016722;28;20469;-61
2023/04/09 09:16:25;;;;;;;4.73;4.33;;;21.90;68.30;;;;;;5008816;28;20452;-61
2023/04/09 09:18:51;;;;;;;4.40;4.00;;;21.90;68.20;;;;;;5019603;28;20485;-62
2023/04/09 09:21:19;;;;;;;3.77;3.47;;;22.00;68.30;;;;;;5011990;28;21058;-62
2023/04/09 09:23:47;;;;;;;3.90;3.50;;;21.90;68.10;;;;;;5012044;28;20902;-61
2023/04/09 09:26:17;;;;;;;4.00;3.70;;;22.00;68.10;;;;;;5012859;28;20471;-60
2023/04/09 09:28:44;;;;;;;4.30;3.90;;;22.00;68.10;;;;;;5010266;28;20469;-60
2023/04/09 09:31:12;;;;;;;3.80;3.45;;;22.00;68.90;;;;;;5015975;28;20463;-61
2023/04/09 09:33:39;;;;;;;4.50;3.93;;;22.00;68.00;;;;;;5015271;28;20488;-61
2023/04/09 09:36:08;;;;;;;8.33;4.23;;;22.00;67.90;;;;;;5016269;28;20486;-58
2023/04/09 09:38:50;;;;;;;4.60;4.20;;;22.00;68.70;;;;;;5014922;28;20983;-61
2023/04/09 09:41:19;;;;;;;3.80;3.50;;;22.00;67.90;;;;;;5013616;28;20204;-61
2023/04/09 09:43:46;;;;;;;3.20;2.90;;;22.00;67.80;;;;;;5016863;28;20549;-62
2023/04/09 09:46:13;;;;;;;5.20;3.70;;;22.00;67.80;;;;;;5019479;28;20513;-61
2023/04/09 09:48:39;;;;;;;4.33;3.93;;;22.00;68.00;;;;;;5020234;28;20462;-61
2023/04/09 09:51:09;;;;;;;4.07;3.77;;;22.00;68.10;;;;;;5022074;28;20465;-61
2023/04/09 09:53:37;;;;;;;4.20;3.90;;;22.00;67.90;;;;;;5019061;28;20456;-62
2023/04/09 09:56:06;;;;;;;4.23;3.90;;;22.00;67.90;;;;;;5014156;28;20463;-62
2023/04/09 09:58:40;;;;;;;4.55;4.15;;;22.00;68.00;;;;;;5020508;28;20484;-62
2023/04/09 10:01:10;;;;;;;9.80;4.30;;;22.00;68.00;;;;;;5013636;28;20240;-61
2023/04/09 10:03:38;;;;;;;4.13;3.73;;;21.90;67.80;;;;;;5020332;28;20463;-61
2023/04/09 10:06:06;;;;;;;4.17;3.50;;;22.00;68.00;;;;;;5023197;28;20901;-62
2023/04/09 10:08:34;;;;;;;3.77;3.47;;;21.90;67.80;;;;;;5017772;28;21173;-61
2023/04/09 10:11:02;;;;;;;4.03;3.63;;;21.90;67.80;;;;;;5023064;28;20460;-61
2023/04/09 10:13:32;;;;;;;3.97;3.63;;;21.90;67.80;;;;;;5018889;28;20462;-62
2023/04/09 10:16:00;;;;;;;4.63;3.70;;;21.90;67.80;;;;;;5013018;28;20461;-61
2023/04/09 10:18:27;;;;;;;4.40;4.00;;;21.90;67.80;;;;;;5015757;28;21796;-61
2023/04/09 10:20:58;;;;;;;3.60;3.33;;;21.90;67.80;;;;;;5017211;28;20485;-59
2023/04/09 10:23:33;;;;;;;4.60;3.40;;;21.90;67.80;;;;;;5019079;28;20475;-62
2023/04/09 10:26:00;;;;;;;4.30;3.90;;;21.90;67.90;;;;;;5009032;28;20919;-58
2023/04/09 10:28:27;;;;;;;5.13;3.70;;;21.90;68.00;;;;;;5015207;28;20209;-61
2023/04/09 10:30:54;;;;;;;5.00;3.97;;;21.90;68.00;;;;;;5022789;28;20624;-62
2023/04/09 10:33:26;;;;;;;3.30;3.10;;;22.00;68.20;;;;;;5017022;28;20467;-60
2023/04/09 10:35:54;;;;;;;3.40;3.10;;;22.00;68.40;;;;;;5020724;28;20554;-59
2023/04/09 10:38:34;;;;;;;4.23;3.33;;;22.00;68.50;;;;;;5017011;28;21026;-59
2023/04/09 10:41:07;;;;;;;4.10;3.10;;;22.00;68.60;;;;;;5020854;28;20902;-57
2023/04/09 10:43:36;;;;;;;3.87;3.50;;;22.00;68.70;;;;;;5015000;28;20466;-56
2023/04/09 10:46:05;;;;;;;3.87;3.57;;;22.00;68.70;;;;;;5017960;28;20461;-58
2023/04/09 10:48:34;;;;;;;3.40;3.20;;;22.10;68.90;;;;;;5020296;28;20467;-59
2023/04/09 10:51:05;;;;;;;4.13;3.07;;;22.10;68.90;;;;;;5014340;28;20459;-56
2023/04/09 10:53:33;;;;;;;4.10;3.63;;;22.20;69.00;;;;;;5019769;28;20827;-61
2023/04/09 10:56:00;;;;;;;3.43;3.07;;;22.10;69.00;;;;;;5014444;28;20546;-59
2023/04/09 10:58:26;;;;;;;3.27;2.97;;;22.10;68.90;;;;;;5011942;28;20489;-59
2023/04/09 11:00:55;;;;;;;3.33;3.00;;;22.20;69.00;;;;;;5013341;28;20464;-61
2023/04/09 11:03:25;;;;;;;3.00;2.80;;;22.20;69.00;;;;;;5019747;28;20498;-60
2023/04/09 11:05:59;;;;;;;4.00;3.60;;;22.20;69.00;;;;;;5014224;28;20464;-62
2023/04/09 11:08:30;;;;;;;2.93;2.70;;;22.20;69.00;;;;;;5020785;28;20456;-60
2023/04/09 11:10:59;;;;;;;3.87;3.57;;;22.30;69.10;;;;;;5015411;28;20468;-62
2023/04/09 11:13:26;;;;;;;3.70;3.40;;;22.30;69.10;;;;;;5014738;28;20855;-64
2023/04/09 11:15:54;;;;;;;3.10;2.90;;;22.30;69.20;;;;;;5018012;28;20882;-62
2023/04/09 11:18:22;;;;;;;4.53;3.47;;;22.30;69.30;;;;;;5015111;28;20505;-60
2023/04/09 11:20:49;;;;;;;5.10;3.63;;;22.40;69.40;;;;;;5013046;28;20493;-59
2023/04/09 11:23:18;;;;;;;3.03;2.83;;;22.40;69.50;;;;;;5014282;28;20482;-65
2023/04/09 11:25:49;;;;;;;3.20;2.93;;;22.40;69.70;;;;;;5012331;28;20494;-57
2023/04/09 11:28:16;;;;;;;7.50;3.37;;;22.40;69.70;;;;;;5018961;28;21050;-59
2023/04/09 11:30:45;;;;;;;7.60;3.30;;;22.40;70.50;;;;;;5017998;28;20459;-62
2023/04/09 11:33:12;;;;;;;6.10;2.90;;;22.40;70.80;;;;;;5016903;28;21037;-63
2023/04/09 11:35:38;;;;;;;3.70;2.90;;;22.40;70.70;;;;;;5016676;28;20458;-60
2023/04/09 11:38:09;;;;;;;5.50;3.73;;;22.40;70.50;;;;;;5013096;28;20480;-61
2023/04/09 11:40:44;;;;;;;5.80;2.50;;;22.40;70.50;;;;;;5019271;28;20458;-60
2023/04/09 11:43:10;;;;;;;2.80;2.50;;;22.40;70.40;;;;;;5012895;28;20469;-59
2023/04/09 11:45:38;;;;;;;5.87;2.83;;;22.40;70.30;;;;;;5013280;28;20458;-61
2023/04/09 11:48:08;;;;;;;4.13;3.00;;;22.50;70.50;;;;;;5014094;28;20519;-61
2023/04/09 11:50:35;;;;;;;3.37;3.07;;;22.50;70.40;;;;;;5013518;28;20466;-58
2023/04/09 11:53:01;;;;;;;3.20;3.00;;;22.50;71.10;;;;;;5011808;28;20459;-53
2023/04/09 11:55:29;;;;;;;3.80;2.90;;;22.50;70.10;;;;;;5012561;28;20460;-55
2023/04/09 11:58:00;;;;;;;5.40;4.00;;;22.50;70.30;;;;;;5016947;28;20974;-59
2023/04/09 12:00:27;;;;;;;4.27;3.40;;;22.40;70.10;;;;;;5009698;28;20464;-60
2023/04/09 12:03:01;;;;;;;7.17;3.57;;;22.40;70.20;;;;;;5014350;28;20462;-56
2023/04/09 12:05:29;;;;;;;4.03;3.60;;;22.40;70.50;;;;;;5018875;28;20828;-56
2023/04/09 12:07:59;;;;;;;4.23;3.30;;;22.40;70.40;;;;;;5024957;28;20970;-58
2023/04/09 12:10:27;;;;;;;5.93;3.83;;;22.40;70.30;;;;;;5013058;28;20479;-58
2023/04/09 12:12:54;;;;;;;5.60;3.33;;;22.40;70.30;;;;;;5010684;28;20544;-60
2023/04/09 12:15:24;;;;;;;3.60;3.30;;;22.40;70.10;;;;;;5015182;28;20463;-58
2023/04/09 12:17:53;;;;;;;3.60;3.30;;;22.40;69.90;;;;;;5016066;28;20465;-59
2023/04/09 12:20:34;;;;;;;4.30;2.97;;;22.40;69.80;;;;;;5020087;28;20464;-58
2023/04/09 12:23:03;;;;;;;4.47;4.13;;;22.40;69.80;;;;;;5012090;28;20560;-58
2023/04/09 12:25:30;;;;;;;3.43;3.13;;;22.40;69.60;;;;;;5015538;28;20467;-60
2023/04/09 12:27:58;;;;;;;4.40;4.00;;;22.40;69.60;;;;;;5018299;28;20546;-58
2023/04/09 12:30:26;;;;;;;3.90;2.83;;;22.40;69.50;;;;;;5020042;28;21035;-60
2023/04/09 12:32:53;;;;;;;5.53;3.70;;;22.40;69.50;;;;;;5021651;28;20543;-59
2023/04/09 12:35:21;;;;;;;3.30;2.80;;;22.40;69.40;;;;;;5019363;28;20455;-57
2023/04/09 12:37:47;;;;;;;4.53;2.80;;;22.30;69.20;;;;;;5016685;28;20546;-59
2023/04/09 12:40:15;;;;;;;4.20;3.37;;;22.30;69.20;;;;;;5016053;28;20464;-59
2023/04/09 12:42:42;;;;;;;3.17;2.97;;;22.30;69.20;;;;;;5018913;28;20478;-60
2023/04/09 12:45:10;;;;;;;3.30;3.00;;;22.40;69.30;;;;;;5010673;28;20470;-59
2023/04/09 12:47:40;;;;;;;3.43;2.60;;;22.30;69.10;;;;;;5011998;28;20517;-59
2023/04/09 12:50:08;;;;;;;3.07;2.87;;;22.30;69.10;;;;;;5011007;28;20460;-60